Trimble, Illinois
Current Conditions -  °F | °C
As of 3:55 PM on Saturday 25 Oct 2014 (Local Time) from KRSV Reporting Station
Clear Clear  
Wind Chill: 82°   Ceiling: Unl
Heat Index: 82°   Visibility: 10mi
Dew Point: 51°   Wind: 7mph
Humidity: 34%   Direction: 320°NW
Pressure: 29.98"   Gusts: NA
Location:  39.0131°N, 87.7657°W
Report Text: KRSV 252055Z AUTO 32006KT 10SM CLR 28/10 A2998 RMK AO2 T02770104
Loading
Personal Weather Stations






























Interactive Weather Map
Tropical Storm Tracking
New forecast layout! Learn more

10-Day Weather Forecast

Advertisements
Track Severe Weather on mobile